createdAt,value
2018-08-18T00:01:37.551Z,52.00
2018-08-18T00:06:58.710Z,52.00
2018-08-18T00:12:24.879Z,52.00
2018-08-18T00:17:45.619Z,52.00
2018-08-18T00:23:06.360Z,52.00
2018-08-18T00:28:27.079Z,52.00
2018-08-18T00:33:47.633Z,51.90
2018-08-18T00:39:11.995Z,52.30
2018-08-18T00:44:32.622Z,51.80
2018-08-18T00:49:53.391Z,51.80
2018-08-18T00:55:14.056Z,51.80
2018-08-18T01:00:35.151Z,51.80
2018-08-18T01:06:01.138Z,51.80
2018-08-18T01:11:21.962Z,51.80
2018-08-18T01:16:47.780Z,51.70
2018-08-18T01:22:10.311Z,51.70
2018-08-18T01:27:35.815Z,51.60
2018-08-18T01:32:56.468Z,51.60
2018-08-18T01:38:17.168Z,51.50
2018-08-18T01:43:37.767Z,51.50
2018-08-18T01:48:59.571Z,51.50
2018-08-18T01:54:20.142Z,51.50
2018-08-18T01:59:41.925Z,51.50
2018-08-18T02:05:10.315Z,51.40
2018-08-18T02:10:32.012Z,51.40
2018-08-18T02:15:52.594Z,51.40
2018-08-18T02:21:23.671Z,51.40
2018-08-18T02:26:44.221Z,51.30
2018-08-18T02:32:05.198Z,51.40
2018-08-18T02:37:26.538Z,52.00
2018-08-18T02:42:47.420Z,51.30
2018-08-18T02:48:16.246Z,51.40
2018-08-18T02:53:36.836Z,51.50
2018-08-18T02:59:04.293Z,51.40
2018-08-18T03:04:25.130Z,51.30
2018-08-18T03:09:45.959Z,51.30
2018-08-18T03:15:06.602Z,51.20
2018-08-18T03:20:27.483Z,51.30
2018-08-18T03:25:48.483Z,51.30
2018-08-18T03:31:09.167Z,51.10
2018-08-18T03:36:31.410Z,51.10
2018-08-18T03:41:55.718Z,51.20
2018-08-18T03:47:16.352Z,51.20
2018-08-18T03:52:37.163Z,51.10
2018-08-18T03:57:57.868Z,51.10
2018-08-18T04:03:18.426Z,51.00
2018-08-18T04:08:39.137Z,51.00
2018-08-18T04:13:59.668Z,50.90
2018-08-18T04:19:21.642Z,51.00
2018-08-18T04:24:45.254Z,51.00
2018-08-18T04:30:08.710Z,50.90
2018-08-18T04:35:30.440Z,51.00
2018-08-18T04:40:50.975Z,51.10
2018-08-18T04:46:11.550Z,51.00
2018-08-18T04:51:32.114Z,51.70
2018-08-18T04:56:52.733Z,51.10
2018-08-18T05:02:13.258Z,51.00
2018-08-18T05:07:38.362Z,51.00
2018-08-18T05:12:58.922Z,51.00
2018-08-18T05:18:19.616Z,51.00
2018-08-18T05:23:40.298Z,51.00
2018-08-18T05:29:00.832Z,51.00
2018-08-18T05:34:21.764Z,50.90
2018-08-18T05:39:43.127Z,51.00
2018-08-18T05:45:17.491Z,51.00
2018-08-18T05:50:38.286Z,51.00
2018-08-18T05:55:59.227Z,51.00
2018-08-18T06:01:32.713Z,51.00
2018-08-18T06:06:53.818Z,51.00
2018-08-18T06:12:20.423Z,51.00
2018-08-18T06:17:42.248Z,51.10
2018-08-18T06:23:02.800Z,51.00
2018-08-18T06:28:23.371Z,51.10
2018-08-18T06:33:43.951Z,51.20
2018-08-18T06:39:06.050Z,51.20
2018-08-18T06:44:28.533Z,51.40
2018-08-18T06:49:49.107Z,51.40
2018-08-18T06:55:14.995Z,51.40
2018-08-18T07:00:35.446Z,51.30
2018-08-18T07:05:56.846Z,51.60
2018-08-18T07:11:17.417Z,51.70
2018-08-18T07:16:37.943Z,51.70
2018-08-18T07:21:58.478Z,51.70
2018-08-18T07:27:22.809Z,51.70
2018-08-18T07:32:43.488Z,51.80
2018-08-18T07:38:04.247Z,51.80
2018-08-18T07:43:28.986Z,51.80
2018-08-18T07:48:49.974Z,51.80
2018-08-18T07:54:10.684Z,51.90
2018-08-18T07:59:31.238Z,52.00
2018-08-18T08:04:52.886Z,52.30
2018-08-18T08:10:13.514Z,52.40
2018-08-18T08:15:34.223Z,52.60
2018-08-18T08:20:54.868Z,52.80
2018-08-18T08:26:15.434Z,52.90
2018-08-18T08:31:36.535Z,53.10
2018-08-18T08:36:57.564Z,53.20
2018-08-18T08:42:18.301Z,53.30
2018-08-18T08:47:39.363Z,53.50
2018-08-18T08:53:00.027Z,53.70
2018-08-18T08:58:20.663Z,53.80
2018-08-18T09:03:41.711Z,53.90
2018-08-18T09:09:02.332Z,54.10
2018-08-18T09:14:23.386Z,54.20
2018-08-18T09:19:43.966Z,54.30
2018-08-18T09:25:08.884Z,55.70
2018-08-18T09:30:31.424Z,56.60
2018-08-18T09:36:06.167Z,55.90
2018-08-18T09:41:26.786Z,56.00
2018-08-18T09:46:47.382Z,55.70
2018-08-18T09:52:09.367Z,55.50
2018-08-18T09:57:29.978Z,55.30
2018-08-18T10:02:50.569Z,55.20
2018-08-18T10:08:11.158Z,55.10
2018-08-18T10:13:31.993Z,55.00
2018-08-18T10:18:52.642Z,54.90
2018-08-18T10:24:13.183Z,55.10
2018-08-18T10:29:34.701Z,55.10
2018-08-18T10:34:55.235Z,54.80
2018-08-18T10:40:15.879Z,54.90
2018-08-18T10:45:36.422Z,54.80
2018-08-18T10:53:10.703Z,54.80
2018-08-18T10:58:42.143Z,55.20
2018-08-18T11:04:02.836Z,55.10
2018-08-18T11:09:23.346Z,54.80
2018-08-18T11:14:47.861Z,54.70
2018-08-18T11:20:13.538Z,54.70
2018-08-18T11:25:36.526Z,54.50
2018-08-18T11:30:57.267Z,54.50
2018-08-18T11:36:17.850Z,54.40
2018-08-18T11:41:38.416Z,54.30
2018-08-18T11:46:59.078Z,54.30
2018-08-18T11:52:19.639Z,54.20
2018-08-18T11:57:41.854Z,54.20
2018-08-18T12:03:22.349Z,54.10
2018-08-18T12:08:42.948Z,54.00
2018-08-18T12:14:03.973Z,53.90
2018-08-18T12:19:24.511Z,53.70
2018-08-18T12:24:49.499Z,53.70
2018-08-18T12:30:19.651Z,53.60
2018-08-18T12:35:40.535Z,53.50
2018-08-18T12:41:01.489Z,53.40
2018-08-18T12:46:23.633Z,53.30
2018-08-18T12:51:44.835Z,53.20
2018-08-18T12:57:05.742Z,53.00
2018-08-18T13:02:35.584Z,53.00
2018-08-18T13:07:56.940Z,52.90
2018-08-18T13:13:17.520Z,52.80
2018-08-18T13:18:38.193Z,52.80
2018-08-18T13:24:02.021Z,52.70
2018-08-18T13:29:22.754Z,52.70
2018-08-18T13:34:43.455Z,52.60
2018-08-18T13:40:04.122Z,52.50
2018-08-18T13:45:36.032Z,52.40
2018-08-18T13:50:56.818Z,52.40
2018-08-18T13:56:17.455Z,52.30
2018-08-18T14:01:41.531Z,52.30
2018-08-18T14:07:02.087Z,52.20
2018-08-18T14:12:22.622Z,52.20
2018-08-18T14:17:43.142Z,52.20
2018-08-18T14:23:08.518Z,52.20
2018-08-18T14:28:29.168Z,52.20
2018-08-18T14:33:49.753Z,52.20
2018-08-18T14:39:10.687Z,52.20
2018-08-18T14:44:34.284Z,52.20
2018-08-18T14:50:08.620Z,52.10
2018-08-18T14:55:29.585Z,52.10
2018-08-18T15:00:58.111Z,52.20
2018-08-18T15:06:31.632Z,52.20
2018-08-18T15:11:52.384Z,52.10
2018-08-18T15:17:13.195Z,52.20
2018-08-18T15:22:34.123Z,52.20
2018-08-18T15:28:02.442Z,52.20
2018-08-18T15:33:25.691Z,52.20
2018-08-18T15:38:47.231Z,52.20
2018-08-18T15:44:09.877Z,52.10
2018-08-18T15:49:30.422Z,52.20
2018-08-18T15:54:51.163Z,52.20
2018-08-18T16:00:26.270Z,52.20
2018-08-18T16:05:47.163Z,52.20
2018-08-18T16:11:07.821Z,52.10
2018-08-18T16:16:33.834Z,52.10
2018-08-18T16:21:55.377Z,52.10
2018-08-18T16:27:25.535Z,52.10
2018-08-18T16:32:48.310Z,52.10
2018-08-18T16:38:11.030Z,52.10
2018-08-18T16:43:36.479Z,52.20
2018-08-18T16:49:01.063Z,52.70
2018-08-18T16:54:23.838Z,52.20
2018-08-18T16:59:46.512Z,52.20
2018-08-18T17:05:12.859Z,52.20
2018-08-18T17:10:34.301Z,52.20
2018-08-18T17:15:57.138Z,52.20
2018-08-18T17:21:19.655Z,52.70
2018-08-18T17:26:40.561Z,52.10
2018-08-18T17:32:04.446Z,52.10
2018-08-18T17:37:27.780Z,52.00
2018-08-18T17:42:50.884Z,52.00
2018-08-18T17:48:11.570Z,51.90
2018-08-18T17:53:32.288Z,52.00
2018-08-18T17:58:52.863Z,52.30
2018-08-18T18:04:13.820Z,52.20
2018-08-18T18:09:35.336Z,52.50
2018-08-18T18:14:56.315Z,51.90
2018-08-18T18:20:17.744Z,51.90
2018-08-18T18:25:38.382Z,51.90
2018-08-18T18:31:00.969Z,51.90
2018-08-18T18:36:22.419Z,51.90
2018-08-18T18:41:43.407Z,51.80
2018-08-18T18:47:04.240Z,51.80
2018-08-18T18:52:28.578Z,51.80
2018-08-18T18:58:09.379Z,51.70
2018-08-18T19:03:51.338Z,51.70
2018-08-18T19:09:20.211Z,51.70
2018-08-18T19:14:44.682Z,51.90
2018-08-18T19:20:22.224Z,51.90
2018-08-18T19:25:47.808Z,52.40
2018-08-18T19:31:14.473Z,53.00
2018-08-18T19:36:40.169Z,53.40
2018-08-18T19:42:09.271Z,53.30
2018-08-18T19:47:38.818Z,53.70
2018-08-18T19:53:04.372Z,53.70
2018-08-18T19:58:25.506Z,53.50
2018-08-18T20:03:46.062Z,53.60
2018-08-18T20:09:07.890Z,53.60
2018-08-18T20:14:28.958Z,53.60
2018-08-18T20:19:57.816Z,53.50
2018-08-18T20:25:19.907Z,53.20
2018-08-18T20:30:45.000Z,52.90
2018-08-18T20:36:18.384Z,52.80
2018-08-18T20:41:40.099Z,52.70
2018-08-18T20:47:13.150Z,52.70
2018-08-18T20:52:39.926Z,52.50
2018-08-18T20:58:03.281Z,52.50
2018-08-18T21:03:35.105Z,52.40
2018-08-18T21:09:03.648Z,52.50
2018-08-18T21:14:33.329Z,52.40
2018-08-18T21:19:57.834Z,52.40
2018-08-18T21:25:19.914Z,52.50
2018-08-18T21:30:49.028Z,52.20
2018-08-18T21:36:14.063Z,52.50
2018-08-18T21:41:45.813Z,52.20
2018-08-18T21:47:08.393Z,52.20
2018-08-18T21:52:40.070Z,52.00
2018-08-18T21:58:05.526Z,52.10
2018-08-18T22:03:31.351Z,52.00
2018-08-18T22:08:59.735Z,51.60
2018-08-18T22:14:27.058Z,51.60
2018-08-18T22:19:56.442Z,52.00
2018-08-18T22:25:36.862Z,52.10
2018-08-18T22:31:01.611Z,51.80
2018-08-18T22:36:27.398Z,51.60
2018-08-18T22:42:01.383Z,51.50
2018-08-18T22:47:30.636Z,51.40
2018-08-18T22:52:58.052Z,51.30
2018-08-18T22:58:31.319Z,51.30
2018-08-18T23:03:58.519Z,51.30
2018-08-18T23:09:26.200Z,51.30
2018-08-18T23:14:52.640Z,51.30
2018-08-18T23:20:18.019Z,51.30
2018-08-18T23:25:42.492Z,51.30
2018-08-18T23:31:12.331Z,51.00
2018-08-18T23:36:37.303Z,51.30
2018-08-18T23:42:10.273Z,51.30
2018-08-18T23:47:30.905Z,51.50
2018-08-18T23:52:58.494Z,51.30
2018-08-18T23:58:22.177Z,51.30
